sensor_id;sensor_type;location;lat;lon;timestamp;pressure;altitude;pressure_sealevel;temperature;humidity
61682;BME280;47577;43.610;25.010;2023-06-26T00:01:50;100073.19;;;21.22;93.47
61682;BME280;47577;43.610;25.010;2023-06-26T00:04:15;100081.97;;;21.14;93.62
61682;BME280;47577;43.610;25.010;2023-06-26T00:06:41;100079.50;;;21.11;95.21
61682;BME280;47577;43.610;25.010;2023-06-26T00:09:07;100077.91;;;21.08;94.49
61682;BME280;47577;43.610;25.010;2023-06-26T00:11:33;100074.56;;;21.16;95.61
61682;BME280;47577;43.610;25.010;2023-06-26T00:14:00;100085.47;;;21.26;93.95
61682;BME280;47577;43.610;25.010;2023-06-26T00:16:26;100079.72;;;21.19;94.33
61682;BME280;47577;43.610;25.010;2023-06-26T00:18:53;100082.31;;;21.21;94.56
61682;BME280;47577;43.610;25.010;2023-06-26T00:21:19;100072.34;;;21.21;95.69
61682;BME280;47577;43.610;25.010;2023-06-26T00:23:46;100070.22;;;21.25;93.49
61682;BME280;47577;43.610;25.010;2023-06-26T00:26:12;100055.28;;;21.21;93.74
61682;BME280;47577;43.610;25.010;2023-06-26T00:28:37;100056.97;;;21.22;93.64
61682;BME280;47577;43.610;25.010;2023-06-26T00:31:03;100058.69;;;21.23;93.32
61682;BME280;47577;43.610;25.010;2023-06-26T00:33:29;100060.34;;;21.14;94.70
61682;BME280;47577;43.610;25.010;2023-06-26T00:35:54;100060.47;;;21.12;95.82
61682;BME280;47577;43.610;25.010;2023-06-26T00:38:20;100049.81;;;20.99;96.21
61682;BME280;47577;43.610;25.010;2023-06-26T00:40:46;100050.41;;;21.03;94.71
61682;BME280;47577;43.610;25.010;2023-06-26T00:43:12;100051.25;;;21.04;95.63
61682;BME280;47577;43.610;25.010;2023-06-26T00:45:38;100057.16;;;20.97;95.51
61682;BME280;47577;43.610;25.010;2023-06-26T00:48:04;100054.22;;;21.00;95.52
61682;BME280;47577;43.610;25.010;2023-06-26T00:50:29;100059.09;;;21.07;94.72
61682;BME280;47577;43.610;25.010;2023-06-26T00:52:55;100060.59;;;21.11;95.48
61682;BME280;47577;43.610;25.010;2023-06-26T00:55:26;100069.16;;;21.16;95.17
61682;BME280;47577;43.610;25.010;2023-06-26T00:57:52;100056.53;;;21.05;94.84
61682;BME280;47577;43.610;25.010;2023-06-26T01:00:18;100075.16;;;21.19;95.93
61682;BME280;47577;43.610;25.010;2023-06-26T01:02:44;100062.13;;;21.25;95.83
61682;BME280;47577;43.610;25.010;2023-06-26T01:05:10;100073.06;;;21.23;95.89
61682;BME280;47577;43.610;25.010;2023-06-26T01:07:38;100055.84;;;21.24;95.40
61682;BME280;47577;43.610;25.010;2023-06-26T01:10:05;100064.69;;;21.26;95.46
61682;BME280;47577;43.610;25.010;2023-06-26T01:12:34;100069.38;;;21.24;95.83
61682;BME280;47577;43.610;25.010;2023-06-26T01:15:01;100071.75;;;21.17;97.11
61682;BME280;47577;43.610;25.010;2023-06-26T01:17:27;100067.69;;;21.12;96.40
61682;BME280;47577;43.610;25.010;2023-06-26T01:20:02;100069.88;;;21.18;96.90
61682;BME280;47577;43.610;25.010;2023-06-26T01:22:39;100066.59;;;21.14;96.56
61682;BME280;47577;43.610;25.010;2023-06-26T01:27:48;100068.91;;;21.19;96.44
61682;BME280;47577;43.610;25.010;2023-06-26T01:30:16;100076.00;;;21.20;96.98
61682;BME280;47577;43.610;25.010;2023-06-26T01:32:42;100068.66;;;21.22;96.68
61682;BME280;47577;43.610;25.010;2023-06-26T01:35:09;100062.00;;;21.26;97.30
61682;BME280;47577;43.610;25.010;2023-06-26T01:37:36;100070.97;;;21.27;95.68
61682;BME280;47577;43.610;25.010;2023-06-26T01:40:01;100059.41;;;21.25;96.07
61682;BME280;47577;43.610;25.010;2023-06-26T01:42:34;100058.69;;;21.23;96.63
61682;BME280;47577;43.610;25.010;2023-06-26T01:45:24;100074.19;;;21.21;95.07
61682;BME280;47577;43.610;25.010;2023-06-26T01:47:52;100061.06;;;21.16;95.86
61682;BME280;47577;43.610;25.010;2023-06-26T01:50:24;100069.16;;;21.16;95.34
61682;BME280;47577;43.610;25.010;2023-06-26T01:53:02;100057.34;;;21.17;95.96
61682;BME280;47577;43.610;25.010;2023-06-26T01:58:03;100051.81;;;21.18;95.65
61682;BME280;47577;43.610;25.010;2023-06-26T02:00:29;100050.44;;;21.24;96.70
61682;BME280;47577;43.610;25.010;2023-06-26T02:02:55;100050.00;;;21.19;96.64
61682;BME280;47577;43.610;25.010;2023-06-26T02:05:20;100059.41;;;21.25;96.48
61682;BME280;47577;43.610;25.010;2023-06-26T02:07:46;100055.84;;;21.24;95.71
61682;BME280;47577;43.610;25.010;2023-06-26T02:10:12;100050.59;;;21.23;95.82
61682;BME280;47577;43.610;25.010;2023-06-26T02:12:38;100055.41;;;21.19;95.76
61682;BME280;47577;43.610;25.010;2023-06-26T02:15:04;100055.00;;;21.24;96.92
61682;BME280;47577;43.610;25.010;2023-06-26T02:17:30;100004.38;;;20.93;95.78
61682;BME280;47577;43.610;25.010;2023-06-26T02:19:56;100015.53;;;21.00;96.53
61682;BME280;47577;43.610;25.010;2023-06-26T02:22:22;100023.97;;;21.07;96.42
61682;BME280;47577;43.610;25.010;2023-06-26T02:24:48;100010.97;;;21.00;96.63
61682;BME280;47577;43.610;25.010;2023-06-26T02:27:13;100001.16;;;20.99;96.58
61682;BME280;47577;43.610;25.010;2023-06-26T02:29:41;100009.63;;;21.06;95.07
61682;BME280;47577;43.610;25.010;2023-06-26T02:32:06;100047.28;;;21.19;95.52
61682;BME280;47577;43.610;25.010;2023-06-26T02:34:32;100012.09;;;20.98;98.46
61682;BME280;47577;43.610;25.010;2023-06-26T02:36:58;100011.09;;;20.99;97.81
61682;BME280;47577;43.610;25.010;2023-06-26T02:39:26;100010.13;;;21.00;96.04
61682;BME280;47577;43.610;25.010;2023-06-26T02:41:52;100048.47;;;21.26;95.37
61682;BME280;47577;43.610;25.010;2023-06-26T02:44:18;100015.50;;;21.11;96.27
61682;BME280;47577;43.610;25.010;2023-06-26T02:46:44;100013.88;;;21.09;95.43
61682;BME280;47577;43.610;25.010;2023-06-26T02:49:10;99994.03;;;20.98;95.27
61682;BME280;47577;43.610;25.010;2023-06-26T02:51:36;100043.41;;;21.33;96.48
61682;BME280;47577;43.610;25.010;2023-06-26T02:54:02;100044.66;;;21.29;96.39
61682;BME280;47577;43.610;25.010;2023-06-26T02:56:29;100019.50;;;21.17;95.73
61682;BME280;47577;43.610;25.010;2023-06-26T02:58:55;100014.25;;;21.15;95.60
61682;BME280;47577;43.610;25.010;2023-06-26T03:01:22;100007.84;;;21.16;95.22
61682;BME280;47577;43.610;25.010;2023-06-26T03:03:48;100007.19;;;21.24;94.67
61682;BME280;47577;43.610;25.010;2023-06-26T03:06:14;100047.91;;;21.44;95.26
61682;BME280;47577;43.610;25.010;2023-06-26T03:08:40;100047.56;;;21.37;95.23
61682;BME280;47577;43.610;25.010;2023-06-26T03:11:07;100043.72;;;21.40;94.85
61682;BME280;47577;43.610;25.010;2023-06-26T03:13:34;100050.03;;;21.40;94.80
61682;BME280;47577;43.610;25.010;2023-06-26T03:16:00;100038.13;;;21.31;95.47
61682;BME280;47577;43.610;25.010;2023-06-26T03:18:26;100045.25;;;21.32;95.49
61682;BME280;47577;43.610;25.010;2023-06-26T03:20:52;100040.81;;;21.31;96.42
61682;BME280;47577;43.610;25.010;2023-06-26T03:23:19;100054.56;;;21.40;95.25
61682;BME280;47577;43.610;25.010;2023-06-26T03:25:45;100051.38;;;21.34;95.38
61682;BME280;47577;43.610;25.010;2023-06-26T03:28:11;100051.78;;;21.30;95.35
61682;BME280;47577;43.610;25.010;2023-06-26T03:30:37;100048.09;;;21.31;95.72
61682;BME280;47577;43.610;25.010;2023-06-26T03:33:02;100046.78;;;21.25;96.31
61682;BME280;47577;43.610;25.010;2023-06-26T03:35:28;100052.31;;;21.24;96.47
61682;BME280;47577;43.610;25.010;2023-06-26T03:37:54;100050.13;;;21.17;97.36
61682;BME280;47577;43.610;25.010;2023-06-26T03:40:19;100044.72;;;21.17;97.11
61682;BME280;47577;43.610;25.010;2023-06-26T03:42:45;100033.38;;;21.24;96.85
61682;BME280;47577;43.610;25.010;2023-06-26T03:45:14;100038.53;;;21.27;96.60
61682;BME280;47577;43.610;25.010;2023-06-26T03:47:39;100032.63;;;21.22;97.35
61682;BME280;47577;43.610;25.010;2023-06-26T03:50:05;100038.25;;;21.30;96.91
61682;BME280;47577;43.610;25.010;2023-06-26T03:52:32;100037.28;;;21.31;96.48
61682;BME280;47577;43.610;25.010;2023-06-26T03:54:58;100040.44;;;21.36;96.25
61682;BME280;47577;43.610;25.010;2023-06-26T03:57:24;100036.88;;;21.35;96.58
61682;BME280;47577;43.610;25.010;2023-06-26T03:59:50;100044.47;;;21.53;96.92
61682;BME280;47577;43.610;25.010;2023-06-26T04:02:15;100043.94;;;21.59;96.51
61682;BME280;47577;43.610;25.010;2023-06-26T04:04:41;100050.41;;;21.68;95.95
61682;BME280;47577;43.610;25.010;2023-06-26T04:07:07;100045.19;;;21.76;97.30
61682;BME280;47577;43.610;25.010;2023-06-26T04:09:32;100044.66;;;21.82;95.37
61682;BME280;47577;43.610;25.010;2023-06-26T04:11:58;100051.41;;;21.98;94.70
61682;BME280;47577;43.610;25.010;2023-06-26T04:14:24;100044.94;;;22.10;93.60
61682;BME280;47577;43.610;25.010;2023-06-26T04:16:49;100057.13;;;22.25;92.32
61682;BME280;47577;43.610;25.010;2023-06-26T04:19:15;100047.44;;;22.23;92.37
61682;BME280;47577;43.610;25.010;2023-06-26T04:21:41;100056.28;;;22.25;93.19
61682;BME280;47577;43.610;25.010;2023-06-26T04:24:06;100054.84;;;22.21;92.37
61682;BME280;47577;43.610;25.010;2023-06-26T04:26:32;100057.41;;;22.22;93.99
61682;BME280;47577;43.610;25.010;2023-06-26T04:28:58;100060.69;;;22.26;93.54
61682;BME280;47577;43.610;25.010;2023-06-26T04:31:24;100067.09;;;22.25;94.22
61682;BME280;47577;43.610;25.010;2023-06-26T04:33:50;100063.69;;;22.23;94.76
61682;BME280;47577;43.610;25.010;2023-06-26T04:36:17;100069.16;;;22.33;93.94
61682;BME280;47577;43.610;25.010;2023-06-26T04:38:44;100076.00;;;22.37;92.41
61682;BME280;47577;43.610;25.010;2023-06-26T04:41:10;100080.97;;;22.32;89.52
61682;BME280;47577;43.610;25.010;2023-06-26T04:43:35;100079.66;;;22.26;91.65
61682;BME280;47577;43.610;25.010;2023-06-26T04:46:05;100068.25;;;22.22;92.18
61682;BME280;47577;43.610;25.010;2023-06-26T04:48:31;100069.09;;;22.23;92.07
61682;BME280;47577;43.610;25.010;2023-06-26T04:50:57;100085.22;;;22.24;91.69
61682;BME280;47577;43.610;25.010;2023-06-26T04:53:25;100079.66;;;22.26;93.01
61682;BME280;47577;43.610;25.010;2023-06-26T04:55:51;100077.94;;;22.25;90.32
61682;BME280;47577;43.610;25.010;2023-06-26T04:58:18;100084.28;;;22.35;90.33
61682;BME280;47577;43.610;25.010;2023-06-26T05:00:44;100079.06;;;22.43;89.24
61682;BME280;47577;43.610;25.010;2023-06-26T05:03:14;100073.66;;;22.43;88.52
61682;BME280;47577;43.610;25.010;2023-06-26T05:05:42;100077.50;;;22.51;92.35
61682;BME280;47577;43.610;25.010;2023-06-26T05:08:20;100087.25;;;22.63;89.00
61682;BME280;47577;43.610;25.010;2023-06-26T05:10:46;100086.81;;;22.68;86.49
61682;BME280;47577;43.610;25.010;2023-06-26T05:13:13;100090.13;;;22.71;86.01
61682;BME280;47577;43.610;25.010;2023-06-26T05:15:41;100076.44;;;22.73;86.99
61682;BME280;47577;43.610;25.010;2023-06-26T05:18:07;100097.88;;;22.86;87.94
61682;BME280;47577;43.610;25.010;2023-06-26T05:20:34;100087.34;;;22.92;87.11
61682;BME280;47577;43.610;25.010;2023-06-26T05:23:02;100090.63;;;22.96;87.16
61682;BME280;47577;43.610;25.010;2023-06-26T05:25:29;100087.03;;;22.86;88.68
61682;BME280;47577;43.610;25.010;2023-06-26T05:27:56;100089.31;;;22.90;88.33
61682;BME280;47577;43.610;25.010;2023-06-26T05:30:23;100094.59;;;22.92;87.46
61682;BME280;47577;43.610;25.010;2023-06-26T05:32:51;100086.78;;;22.98;83.07
61682;BME280;47577;43.610;25.010;2023-06-26T05:35:18;100094.19;;;23.06;82.84
61682;BME280;47577;43.610;25.010;2023-06-26T05:37:48;100097.47;;;23.00;85.75
61682;BME280;47577;43.610;25.010;2023-06-26T05:40:14;100096.19;;;22.94;86.73
61682;BME280;47577;43.610;25.010;2023-06-26T05:42:40;100093.75;;;22.91;84.64
61682;BME280;47577;43.610;25.010;2023-06-26T05:45:06;100096.13;;;22.75;84.34
61682;BME280;47577;43.610;25.010;2023-06-26T05:47:32;100090.84;;;22.73;88.58
61682;BME280;47577;43.610;25.010;2023-06-26T05:49:58;100096.28;;;22.83;88.03
61682;BME280;47577;43.610;25.010;2023-06-26T05:52:24;100098.13;;;22.73;85.61
61682;BME280;47577;43.610;25.010;2023-06-26T05:54:50;100095.97;;;22.67;85.16
61682;BME280;47577;43.610;25.010;2023-06-26T05:57:17;100101.28;;;22.78;85.81
61682;BME280;47577;43.610;25.010;2023-06-26T05:59:43;100107.72;;;22.87;86.44
61682;BME280;47577;43.610;25.010;2023-06-26T06:02:09;100105.56;;;22.90;85.76
61682;BME280;47577;43.610;25.010;2023-06-26T06:04:34;100101.19;;;22.99;84.91
61682;BME280;47577;43.610;25.010;2023-06-26T06:07:02;100105.31;;;23.03;85.72
61682;BME280;47577;43.610;25.010;2023-06-26T06:09:28;100106.53;;;23.10;83.20
61682;BME280;47577;43.610;25.010;2023-06-26T06:11:53;100103.53;;;23.13;83.71
61682;BME280;47577;43.610;25.010;2023-06-26T06:14:19;100104.09;;;23.17;82.70
61682;BME280;47577;43.610;25.010;2023-06-26T06:16:45;100101.25;;;23.18;83.35
61682;BME280;47577;43.610;25.010;2023-06-26T06:19:10;100109.13;;;23.22;86.98
61682;BME280;47577;43.610;25.010;2023-06-26T06:21:38;100104.09;;;23.17;83.42
61682;BME280;47577;43.610;25.010;2023-06-26T06:24:04;100108.81;;;23.15;81.67
61682;BME280;47577;43.610;25.010;2023-06-26T06:26:32;100105.97;;;23.16;82.31
61682;BME280;47577;43.610;25.010;2023-06-26T06:28:57;100103.41;;;23.25;82.63
61682;BME280;47577;43.610;25.010;2023-06-26T06:31:23;100104.53;;;23.32;80.43
61682;BME280;47577;43.610;25.010;2023-06-26T06:33:48;100096.13;;;23.15;82.84
61682;BME280;47577;43.610;25.010;2023-06-26T06:36:14;100099.06;;;23.03;85.06
61682;BME280;47577;43.610;25.010;2023-06-26T06:38:43;100101.59;;;22.94;84.58
61682;BME280;47577;43.610;25.010;2023-06-26T06:41:09;100105.81;;;23.08;86.97
61682;BME280;47577;43.610;25.010;2023-06-26T06:43:34;100105.69;;;23.29;82.17
61682;BME280;47577;43.610;25.010;2023-06-26T06:46:01;100099.13;;;23.32;85.94
61682;BME280;47577;43.610;25.010;2023-06-26T06:48:27;100095.56;;;23.41;82.13
61682;BME280;47577;43.610;25.010;2023-06-26T06:50:52;100098.00;;;23.54;82.11
61682;BME280;47577;43.610;25.010;2023-06-26T06:53:18;100106.41;;;23.51;81.59
61682;BME280;47577;43.610;25.010;2023-06-26T06:55:46;100105.44;;;23.52;80.46
61682;BME280;47577;43.610;25.010;2023-06-26T06:58:11;100105.28;;;23.63;82.00
61682;BME280;47577;43.610;25.010;2023-06-26T07:00:37;100094.44;;;23.63;81.86
61682;BME280;47577;43.610;25.010;2023-06-26T07:03:03;100101.84;;;23.61;79.95
61682;BME280;47577;43.610;25.010;2023-06-26T07:05:29;100110.25;;;23.68;80.77
61682;BME280;47577;43.610;25.010;2023-06-26T07:07:55;100110.72;;;23.83;81.70
61682;BME280;47577;43.610;25.010;2023-06-26T07:10:21;100106.69;;;23.97;80.86
61682;BME280;47577;43.610;25.010;2023-06-26T07:12:46;100121.81;;;24.19;79.06
61682;BME280;47577;43.610;25.010;2023-06-26T07:15:12;100113.34;;;24.32;81.25
61682;BME280;47577;43.610;25.010;2023-06-26T07:17:38;100119.72;;;24.40;80.08
61682;BME280;47577;43.610;25.010;2023-06-26T07:20:05;100115.84;;;24.53;78.69
61682;BME280;47577;43.610;25.010;2023-06-26T07:22:37;100117.25;;;24.57;76.07
61682;BME280;47577;43.610;25.010;2023-06-26T07:25:02;100126.94;;;24.69;74.65
61682;BME280;47577;43.610;25.010;2023-06-26T07:27:29;100128.06;;;24.76;72.89
61682;BME280;47577;43.610;25.010;2023-06-26T07:29:56;100128.25;;;24.55;76.86
61682;BME280;47577;43.610;25.010;2023-06-26T07:32:21;100131.41;;;24.51;77.63
61682;BME280;47577;43.610;25.010;2023-06-26T07:34:47;100134.47;;;24.28;74.66
61682;BME280;47577;43.610;25.010;2023-06-26T07:37:12;100134.25;;;24.12;76.31
61682;BME280;47577;43.610;25.010;2023-06-26T07:39:38;100134.03;;;24.33;78.81
61682;BME280;47577;43.610;25.010;2023-06-26T07:42:04;100132.63;;;24.38;78.11
61682;BME280;47577;43.610;25.010;2023-06-26T07:44:29;100117.75;;;24.33;75.80
61682;BME280;47577;43.610;25.010;2023-06-26T07:46:55;100134.16;;;24.41;78.38
61682;BME280;47577;43.610;25.010;2023-06-26T07:51:56;100112.25;;;24.05;76.17
61682;BME280;47577;43.610;25.010;2023-06-26T07:54:21;100092.56;;;23.93;78.70
61682;BME280;47577;43.610;25.010;2023-06-26T07:56:57;100110.97;;;24.09;78.26
61682;BME280;47577;43.610;25.010;2023-06-26T08:04:34;100096.25;;;24.02;76.31
61682;BME280;47577;43.610;25.010;2023-06-26T08:27:41;100097.25;;;24.48;73.53
61682;BME280;47577;43.610;25.010;2023-06-26T08:30:07;100104.50;;;24.67;73.35
61682;BME280;47577;43.610;25.010;2023-06-26T08:32:33;100093.28;;;24.80;74.56
61682;BME280;47577;43.610;25.010;2023-06-26T08:34:59;100104.72;;;24.84;72.46
61682;BME280;47577;43.610;25.010;2023-06-26T08:37:25;100102.28;;;24.80;72.98
61682;BME280;47577;43.610;25.010;2023-06-26T08:39:51;100092.63;;;24.68;71.54
61682;BME280;47577;43.610;25.010;2023-06-26T08:42:16;100103.59;;;24.76;72.24
61682;BME280;47577;43.610;25.010;2023-06-26T08:44:42;100114.94;;;24.99;72.46
61682;BME280;47577;43.610;25.010;2023-06-26T08:47:11;100098.31;;;25.03;70.97
61682;BME280;47577;43.610;25.010;2023-06-26T08:49:47;100096.44;;;25.21;69.30
61682;BME280;47577;43.610;25.010;2023-06-26T08:52:19;100083.69;;;25.22;70.21
61682;BME280;47577;43.610;25.010;2023-06-26T08:54:54;100108.56;;;25.54;70.42
61682;BME280;47577;43.610;25.010;2023-06-26T08:57:22;100091.72;;;25.59;69.01
61682;BME280;47577;43.610;25.010;2023-06-26T08:59:49;100095.47;;;25.58;69.70
61682;BME280;47577;43.610;25.010;2023-06-26T09:02:15;100086.03;;;25.70;71.69
61682;BME280;47577;43.610;25.010;2023-06-26T09:04:41;100092.69;;;25.68;68.40
61682;BME280;47577;43.610;25.010;2023-06-26T09:07:07;100117.41;;;25.57;70.49
61682;BME280;47577;43.610;25.010;2023-06-26T09:09:33;100115.84;;;25.54;68.15
61682;BME280;47577;43.610;25.010;2023-06-26T09:11:59;100121.06;;;25.65;70.55
61682;BME280;47577;43.610;25.010;2023-06-26T09:14:26;100085.56;;;25.21;69.96
61682;BME280;47577;43.610;25.010;2023-06-26T09:16:53;100115.47;;;25.03;72.08
61682;BME280;47577;43.610;25.010;2023-06-26T09:19:19;100107.00;;;25.06;73.03
61682;BME280;47577;43.610;25.010;2023-06-26T09:21:45;100091.47;;;25.16;73.14
61682;BME280;47577;43.610;25.010;2023-06-26T09:24:14;100082.44;;;24.98;72.84
61682;BME280;47577;43.610;25.010;2023-06-26T09:26:40;100111.88;;;25.30;72.45
61682;BME280;47577;43.610;25.010;2023-06-26T09:29:06;100108.38;;;25.38;70.31
61682;BME280;47577;43.610;25.010;2023-06-26T09:31:37;100108.94;;;25.42;68.90
61682;BME280;47577;43.610;25.010;2023-06-26T09:34:02;100106.91;;;25.62;69.63
61682;BME280;47577;43.610;25.010;2023-06-26T09:36:30;100104.47;;;25.77;70.42
61682;BME280;47577;43.610;25.010;2023-06-26T09:39:00;100103.06;;;25.90;67.72
61682;BME280;47577;43.610;25.010;2023-06-26T09:41:26;100111.84;;;26.02;67.62
61682;BME280;47577;43.610;25.010;2023-06-26T09:43:52;100108.13;;;25.85;67.41
61682;BME280;47577;43.610;25.010;2023-06-26T09:46:28;100108.50;;;25.90;66.63
61682;BME280;47577;43.610;25.010;2023-06-26T09:49:04;100112.84;;;26.01;65.93
61682;BME280;47577;43.610;25.010;2023-06-26T09:51:31;100113.22;;;25.98;66.26
61682;BME280;47577;43.610;25.010;2023-06-26T09:53:58;100113.97;;;25.90;67.02
61682;BME280;47577;43.610;25.010;2023-06-26T09:56:24;100108.97;;;25.86;68.28
61682;BME280;47577;43.610;25.010;2023-06-26T09:58:50;100102.59;;;25.95;68.47
61682;BME280;47577;43.610;25.010;2023-06-26T10:01:16;100102.44;;;25.79;69.37
61682;BME280;47577;43.610;25.010;2023-06-26T10:03:42;100102.69;;;25.85;68.56
61682;BME280;47577;43.610;25.010;2023-06-26T10:06:09;100106.56;;;25.83;66.68
61682;BME280;47577;43.610;25.010;2023-06-26T10:08:37;100099.56;;;25.80;66.88
61682;BME280;47577;43.610;25.010;2023-06-26T10:11:04;100099.25;;;25.83;68.42
61682;BME280;47577;43.610;25.010;2023-06-26T10:13:38;100100.44;;;25.81;69.08
61682;BME280;47577;43.610;25.010;2023-06-26T10:16:07;100094.28;;;25.79;68.78
61682;BME280;47577;43.610;25.010;2023-06-26T10:18:36;100090.91;;;25.85;67.10
61682;BME280;47577;43.610;25.010;2023-06-26T10:21:05;100099.81;;;26.05;67.37
61682;BME280;47577;43.610;25.010;2023-06-26T10:23:34;100092.31;;;26.07;66.11
61682;BME280;47577;43.610;25.010;2023-06-26T10:26:00;100101.69;;;26.13;67.81
61682;BME280;47577;43.610;25.010;2023-06-26T10:28:28;100085.38;;;26.39;65.06
61682;BME280;47577;43.610;25.010;2023-06-26T10:30:55;100088.69;;;26.59;64.99
61682;BME280;47577;43.610;25.010;2023-06-26T10:33:21;100089.81;;;26.74;63.35
61682;BME280;47577;43.610;25.010;2023-06-26T10:35:48;100083.56;;;26.98;65.68
61682;BME280;47577;43.610;25.010;2023-06-26T10:38:15;100088.94;;;26.74;62.18
61682;BME280;47577;43.610;25.010;2023-06-26T10:40:42;100082.84;;;26.80;66.17
61682;BME280;47577;43.610;25.010;2023-06-26T10:43:12;100071.81;;;26.98;63.96
61682;BME280;47577;43.610;25.010;2023-06-26T10:45:49;100073.06;;;27.20;63.79
61682;BME280;47577;43.610;25.010;2023-06-26T10:48:20;100071.16;;;27.04;62.06
61682;BME280;47577;43.610;25.010;2023-06-26T10:50:49;100068.25;;;27.06;58.17
61682;BME280;47577;43.610;25.010;2023-06-26T10:56:03;100071.91;;;27.31;60.78
61682;BME280;47577;43.610;25.010;2023-06-26T10:58:33;100059.75;;;27.25;58.61
61682;BME280;47577;43.610;25.010;2023-06-26T11:03:47;100064.59;;;27.56;59.76
61682;BME280;47577;43.610;25.010;2023-06-26T11:06:19;100069.88;;;27.82;55.03
61682;BME280;47577;43.610;25.010;2023-06-26T11:08:54;100068.16;;;27.48;55.69
61682;BME280;47577;43.610;25.010;2023-06-26T11:14:25;100066.75;;;28.26;57.35
61682;BME280;47577;43.610;25.010;2023-06-26T11:16:52;100062.19;;;27.45;59.61
61682;BME280;47577;43.610;25.010;2023-06-26T11:19:18;100062.31;;;27.27;59.21
61682;BME280;47577;43.610;25.010;2023-06-26T11:21:45;100069.03;;;27.49;59.57
61682;BME280;47577;43.610;25.010;2023-06-26T11:24:12;100062.19;;;27.69;59.35
61682;BME280;47577;43.610;25.010;2023-06-26T11:26:38;100065.94;;;28.09;60.00
61682;BME280;47577;43.610;25.010;2023-06-26T11:29:04;100058.34;;;28.44;57.62
61682;BME280;47577;43.610;25.010;2023-06-26T11:31:32;100058.59;;;28.66;59.89
61682;BME280;47577;43.610;25.010;2023-06-26T11:33:59;100066.16;;;28.64;53.33
61682;BME280;47577;43.610;25.010;2023-06-26T11:36:26;100054.34;;;28.55;53.96
61682;BME280;47577;43.610;25.010;2023-06-26T11:38:54;100050.28;;;28.59;53.83
61682;BME280;47577;43.610;25.010;2023-06-26T11:41:20;100047.84;;;28.65;55.72
61682;BME280;47577;43.610;25.010;2023-06-26T11:43:46;100057.91;;;28.72;52.47
61682;BME280;47577;43.610;25.010;2023-06-26T11:46:11;100059.72;;;28.80;51.22
61682;BME280;47577;43.610;25.010;2023-06-26T11:48:37;100058.97;;;28.94;52.46
61682;BME280;47577;43.610;25.010;2023-06-26T11:51:07;100056.78;;;28.90;57.11
61682;BME280;47577;43.610;25.010;2023-06-26T11:53:39;100048.91;;;28.95;52.13
61682;BME280;47577;43.610;25.010;2023-06-26T11:56:10;100053.53;;;29.17;56.26
61682;BME280;47577;43.610;25.010;2023-06-26T11:59:02;100055.88;;;29.29;54.07
61682;BME280;47577;43.610;25.010;2023-06-26T12:01:41;100059.75;;;29.58;57.68
61682;BME280;47577;43.610;25.010;2023-06-26T12:04:08;100045.22;;;29.57;53.17
61682;BME280;47577;43.610;25.010;2023-06-26T12:06:39;100044.19;;;29.58;57.42
61682;BME280;47577;43.610;25.010;2023-06-26T12:09:08;100040.50;;;29.66;55.25
61682;BME280;47577;43.610;25.010;2023-06-26T12:11:42;100054.13;;;29.05;60.33
61682;BME280;47577;43.610;25.010;2023-06-26T12:14:08;100054.78;;;28.84;62.64
61682;BME280;47577;43.610;25.010;2023-06-26T12:16:36;100062.44;;;28.88;62.38
61682;BME280;47577;43.610;25.010;2023-06-26T12:19:03;100059.75;;;28.72;64.01
61682;BME280;47577;43.610;25.010;2023-06-26T12:24:08;100053.50;;;28.63;63.55
61682;BME280;47577;43.610;25.010;2023-06-26T12:26:34;100050.53;;;28.73;62.33
61682;BME280;47577;43.610;25.010;2023-06-26T12:29:08;100058.56;;;28.74;62.51
61682;BME280;47577;43.610;25.010;2023-06-26T12:31:34;100055.91;;;28.89;63.74
61682;BME280;47577;43.610;25.010;2023-06-26T12:34:02;100061.66;;;29.03;64.49
61682;BME280;47577;43.610;25.010;2023-06-26T12:36:40;100062.44;;;28.88;62.84
61682;BME280;47577;43.610;25.010;2023-06-26T12:39:09;100066.69;;;28.91;62.19
61682;BME280;47577;43.610;25.010;2023-06-26T12:41:52;100078.44;;;28.99;63.12
61682;BME280;47577;43.610;25.010;2023-06-26T12:44:23;100071.88;;;28.77;62.56
61682;BME280;47577;43.610;25.010;2023-06-26T12:46:54;100069.97;;;28.38;61.81
61682;BME280;47577;43.610;25.010;2023-06-26T12:49:20;100067.28;;;28.22;62.55
61682;BME280;47577;43.610;25.010;2023-06-26T12:51:46;100076.88;;;27.93;62.77
61682;BME280;47577;43.610;25.010;2023-06-26T12:54:12;100076.56;;;27.80;63.66
61682;BME280;47577;43.610;25.010;2023-06-26T12:56:38;100067.50;;;27.71;64.66
61682;BME280;47577;43.610;25.010;2023-06-26T12:59:03;100075.34;;;27.33;64.64
61682;BME280;47577;43.610;25.010;2023-06-26T13:01:29;100073.25;;;27.27;65.46
61682;BME280;47577;43.610;25.010;2023-06-26T13:03:55;100074.38;;;26.99;64.27
61682;BME280;47577;43.610;25.010;2023-06-26T13:06:20;100082.38;;;26.93;64.45
61682;BME280;47577;43.610;25.010;2023-06-26T13:08:46;100080.28;;;26.78;64.72
61682;BME280;47577;43.610;25.010;2023-06-26T13:11:12;100071.38;;;26.68;64.86
61682;BME280;47577;43.610;25.010;2023-06-26T13:13:37;100072.16;;;26.60;64.42
61682;BME280;47577;43.610;25.010;2023-06-26T13:16:03;100065.50;;;26.55;65.36
61682;BME280;47577;43.610;25.010;2023-06-26T13:18:30;100054.78;;;26.53;65.46
61682;BME280;47577;43.610;25.010;2023-06-26T13:20:55;100061.31;;;26.69;64.77
61682;BME280;47577;43.610;25.010;2023-06-26T13:23:21;100071.91;;;26.72;65.83
61682;BME280;47577;43.610;25.010;2023-06-26T13:25:47;100070.38;;;26.77;66.91